Airfield :
LOGIN :

Register | Disclaimer

   EN    FR    IT 

 










Legend :    VFR   Marginal VFR   IFR   Intensive IFR   Very Intensive IFR
Visi :
Ceiling :
>= 8 km
>= 3000ft
5 to 8 km
1000 to 3000 ft
1500m to 5 km
500 to 1000 ft
800 to 1500m
200 to 500 ft
< 800m
< 200 ft
Symbols :   Thunderstorms  Fog  Heavy snow  Heavy precipitations  Wind > 20 kt
SIGMETs :     Misc.  Thunderstorms  Icing  Turbulence  Mountain Waves  Volcanic Ashes






- Airport Elevation : 1197 ft
- IATA code : SPM


ETAD - Spangdahlem Ab

EXPIRED METARs :
  • 031456Z AUTO 26011G17KT 9999 CLR 27/10 A3005 RMK AO2 SLP154 T02680100
  • 032256Z AUTO 00000KT 9999 CLR 15/09 A3012 RMK AO2 SLP178 T01530092 402740128
  • 032156Z AUTO 32003KT 9999 CLR 16/10 A3011 RMK AO2 SLP175 T01620098 $
  • 032056Z AUTO 32003KT 9999 CLR 17/11 A3010 RMK AO2 SLP171 T01740105 52019 $

TAF AMD TAF ETAD
Valid from the 03 at 22:00 until the 05 at 04:00 UTC


032240Z 0322/0504 VRB03KT 9999 FEW045 QNH3011INS
BECMG 0414/0415 30007KT 9999 SCT045 QNH3008INS
BECMG 0422/0423 VRB03KT 9999 BKN030 QNH3014INS TX25/0414Z TN10/0404Z LAST NO AMDS AFT 0322 NEXT 0406



MET'MAP, your aeronautical weather chart ! - Copyright ORBIFLY December 2007 - Disclaimer

ORBIFLY MET'MAP TEAM :

Programming & Development : Alexandra Zaïnal
Original concept : Baudouin d'Aumeries
Technical & hardware support : Manuel Goepfert
Assistance : Marc-Olivier Méhu




SOURCES & CREDITS :

   NOAA